Portada
METAR-TAF:

METAR-TAF

Aeroports :

Yamagata, Japó

latitud: 38-25N, longitud: 140-22E, altitud: 105 m

Observació

L'informe es va fer fa 1 hora i 2 minuts, a les 09:00 UTC
Vent 7 kt del Est
Temperatura 13°C
Humitat 77%
Pressió 1024 hPa
Visibilitat 10 km o més
Escasses núvols a una alçada de 5000 ft
Cel ennuvolat

METAR: RJSC 210900Z 10007KT 9999 FEW050 BKN/// 13/09 Q1024

Hora: 19:02 (10:02 UTC)


TAF: manca

Observacions i pronòstics meteorològics de més de 4000 aeroports (METAR i TAF).

Les estacions disponibles són els punts grocs i vermells al mapa.

Posi el ratolí al punt desitjat per veure el nom de l'estació.

Feu clic per veure les observacions i els pronòstics meteorològics.

Per canviar el mapa: feu clic els botons verds amb una creu de color negre per apropar; al botó verd amb un guió per allunyar la imatge; o en les fletxes verdes per a mapes adjacents.


METAR-TAF: